Time;durP1;ratioP1;P1;durP2;ratioP2;P2;SDS_P1;SDS_P2;PMS_P1;PMS_P2;Temp;Humidity;BMP_temperature;BMP_pressure;BME280_temperature;BME280_humidity;BME280_pressure;Samples;Min_cycle;Max_cycle;Signal;HPM_P1;HPM_P2
2023/03/10 00:02:22;;;;;;;15.95;8.40;;;1.10;99.90;;;;;;5084198;28;20043;-70
2023/03/10 00:04:54;;;;;;;16.55;8.57;;;1.10;99.90;;;;;;5084846;28;20044;-70
2023/03/10 00:07:19;;;;;;;20.70;10.65;;;1.20;99.90;;;;;;5062033;28;20072;-69
2023/03/10 00:09:46;;;;;;;16.23;9.00;;;1.10;99.90;;;;;;5084357;28;20094;-70
2023/03/10 00:12:11;;;;;;;17.05;8.50;;;1.10;99.90;;;;;;5086626;28;20040;-70
2023/03/10 00:14:37;;;;;;;17.65;8.93;;;1.10;99.90;;;;;;5086860;28;20470;-70
2023/03/10 00:17:04;;;;;;;16.30;8.23;;;1.10;99.90;;;;;;5074185;28;20044;-69
2023/03/10 00:19:30;;;;;;;24.33;10.98;;;1.10;99.90;;;;;;5068654;28;20052;-70
2023/03/10 00:21:55;;;;;;;21.02;10.23;;;1.10;99.90;;;;;;5081654;28;20504;-70
2023/03/10 00:24:21;;;;;;;16.00;8.75;;;1.10;99.90;;;;;;5065842;28;20535;-70
2023/03/10 00:26:48;;;;;;;20.90;10.45;;;1.10;99.90;;;;;;5066728;28;20079;-70
2023/03/10 00:29:14;;;;;;;16.83;9.88;;;1.00;99.90;;;;;;5081557;28;20511;-70
2023/03/10 00:31:40;;;;;;;19.40;11.43;;;1.10;99.90;;;;;;5080922;28;20038;-70
2023/03/10 00:34:06;;;;;;;20.85;11.23;;;1.10;99.90;;;;;;5057483;28;20032;-70
2023/03/10 00:36:32;;;;;;;24.63;10.48;;;1.00;99.90;;;;;;5087326;28;20085;-70
2023/03/10 00:39:00;;;;;;;25.13;11.30;;;1.00;99.90;;;;;;5084525;28;20120;-70
2023/03/10 00:41:29;;;;;;;20.58;10.00;;;1.00;99.90;;;;;;5086536;28;20035;-70
2023/03/10 00:43:56;;;;;;;17.25;9.88;;;1.10;99.90;;;;;;5068263;28;20044;-70
2023/03/10 00:46:23;;;;;;;18.17;10.27;;;1.10;99.90;;;;;;5084892;28;20028;-70
2023/03/10 00:48:49;;;;;;;21.80;11.75;;;1.10;99.90;;;;;;5085923;28;20607;-70
2023/03/10 00:51:15;;;;;;;19.58;10.65;;;1.10;99.90;;;;;;5058211;28;20248;-70
2023/03/10 00:53:41;;;;;;;24.00;11.07;;;1.20;99.90;;;;;;5061755;28;20044;-70
2023/03/10 00:56:17;;;;;;;16.23;8.15;;;1.10;99.90;;;;;;5080300;28;20625;-70
2023/03/10 00:58:45;;;;;;;27.48;13.65;;;1.10;99.90;;;;;;5064211;28;20155;-70
2023/03/10 01:01:15;;;;;;;20.40;9.50;;;1.20;99.90;;;;;;5082156;28;20487;-70
2023/03/10 01:03:40;;;;;;;20.75;11.20;;;1.20;99.90;;;;;;5083011;28;20469;-70
2023/03/10 01:06:06;;;;;;;31.27;16.95;;;1.20;99.90;;;;;;5081368;28;20483;-70
2023/03/10 01:08:32;;;;;;;26.13;12.38;;;1.20;99.90;;;;;;5078338;28;20131;-70
2023/03/10 01:10:57;;;;;;;18.27;11.23;;;1.20;99.90;;;;;;5067391;28;20067;-70
2023/03/10 01:13:23;;;;;;;29.13;13.68;;;1.30;99.90;;;;;;5086083;28;20480;-70
2023/03/10 01:15:49;;;;;;;28.00;17.80;;;1.30;99.90;;;;;;5066884;28;20097;-70
2023/03/10 01:18:17;;;;;;;29.73;14.55;;;1.30;99.90;;;;;;5068027;28;20507;-70
2023/03/10 01:20:43;;;;;;;22.70;13.02;;;1.30;99.90;;;;;;5082444;28;20068;-70
2023/03/10 01:23:17;;;;;;;32.83;14.82;;;1.30;99.90;;;;;;5086596;28;20081;-70
2023/03/10 01:25:43;;;;;;;24.35;12.88;;;1.30;99.90;;;;;;5072788;28;20044;-70
2023/03/10 01:28:09;;;;;;;29.05;13.63;;;1.30;99.90;;;;;;5085127;28;20035;-70
2023/03/10 01:30:35;;;;;;;24.50;13.05;;;1.40;99.90;;;;;;5068174;28;20416;-70
2023/03/10 01:33:01;;;;;;;22.30;11.65;;;1.40;99.90;;;;;;5082721;28;20039;-70
2023/03/10 01:35:29;;;;;;;19.08;9.50;;;1.40;99.90;;;;;;5084689;28;20114;-70
2023/03/10 01:37:55;;;;;;;20.75;9.25;;;1.40;99.90;;;;;;5062716;28;20079;-70
2023/03/10 01:40:20;;;;;;;20.23;13.05;;;1.40;99.90;;;;;;5066327;28;20133;-70
2023/03/10 01:42:46;;;;;;;22.13;11.73;;;1.40;99.90;;;;;;5075980;28;20407;-70
2023/03/10 01:45:15;;;;;;;17.17;9.43;;;1.40;99.90;;;;;;5082025;28;20040;-70
2023/03/10 01:47:42;;;;;;;20.90;11.05;;;1.40;99.90;;;;;;5083296;28;20036;-70
2023/03/10 01:50:15;;;;;;;13.15;7.15;;;1.40;99.90;;;;;;5085617;28;20105;-71
2023/03/10 01:52:44;;;;;;;15.95;8.63;;;1.40;99.90;;;;;;5084736;28;20040;-70
2023/03/10 01:55:16;;;;;;;15.93;9.77;;;1.40;99.90;;;;;;5084768;28;20044;-70
2023/03/10 01:57:54;;;;;;;17.63;9.20;;;1.40;99.90;;;;;;5065545;28;20044;-70
2023/03/10 02:00:21;;;;;;;21.52;11.30;;;1.50;99.90;;;;;;5072765;28;20044;-71
2023/03/10 02:03:08;;;;;;;19.38;9.65;;;1.50;99.90;;;;;;5068901;28;20036;-71
2023/03/10 02:05:43;;;;;;;14.15;7.90;;;1.50;99.90;;;;;;5065901;28;20091;-70
2023/03/10 02:08:09;;;;;;;15.27;9.80;;;1.50;99.90;;;;;;5065888;28;20483;-70
2023/03/10 02:10:36;;;;;;;16.60;8.13;;;1.50;99.90;;;;;;5085034;28;20048;-71
2023/03/10 02:13:02;;;;;;;16.25;7.82;;;1.50;99.90;;;;;;5066642;28;20043;-71
2023/03/10 02:15:28;;;;;;;15.63;10.20;;;1.50;99.90;;;;;;5082786;28;20535;-70
2023/03/10 02:17:54;;;;;;;15.43;7.53;;;1.60;99.90;;;;;;5076308;28;20031;-71
2023/03/10 02:20:46;;;;;;;15.73;8.68;;;1.50;99.90;;;;;;5067150;28;20469;-70
2023/03/10 02:23:21;;;;;;;17.52;8.07;;;1.60;99.90;;;;;;5061429;28;20055;-70
2023/03/10 02:25:54;;;;;;;14.25;7.45;;;1.60;99.90;;;;;;5065264;28;20039;-70
2023/03/10 02:28:20;;;;;;;18.33;9.25;;;1.60;99.90;;;;;;5065050;28;20032;-70
2023/03/10 02:30:49;;;;;;;18.75;9.38;;;1.60;99.90;;;;;;5063646;28;20044;-70
2023/03/10 02:33:27;;;;;;;14.80;7.40;;;1.60;99.90;;;;;;5051531;28;20400;-69
2023/03/10 02:35:53;;;;;;;15.32;9.95;;;1.50;99.90;;;;;;5064312;28;20091;-70
2023/03/10 02:38:19;;;;;;;13.63;6.05;;;1.60;99.90;;;;;;5085533;28;20452;-70
2023/03/10 02:40:48;;;;;;;15.63;7.88;;;1.50;99.90;;;;;;5066236;28;20044;-70
2023/03/10 02:43:25;;;;;;;16.42;7.55;;;1.50;99.90;;;;;;5086403;28;20081;-70
2023/03/10 02:45:54;;;;;;;19.38;9.02;;;1.50;99.90;;;;;;5070160;28;20044;-70
2023/03/10 02:48:28;;;;;;;14.70;8.05;;;1.50;99.90;;;;;;5085897;28;20118;-70
2023/03/10 02:50:55;;;;;;;15.27;6.97;;;1.50;99.90;;;;;;5077214;28;20119;-70
2023/03/10 02:53:24;;;;;;;15.25;8.82;;;1.50;99.90;;;;;;5069144;28;20108;-70
2023/03/10 02:55:50;;;;;;;14.05;7.75;;;1.50;99.90;;;;;;5086483;28;20044;-70
2023/03/10 02:58:17;;;;;;;15.38;7.55;;;1.50;99.90;;;;;;5086192;28;20032;-70
2023/03/10 03:00:45;;;;;;;18.20;9.90;;;1.40;99.90;;;;;;5065354;28;20048;-70
2023/03/10 03:03:14;;;;;;;16.02;8.13;;;1.40;99.90;;;;;;5063226;28;20043;-70
2023/03/10 03:05:40;;;;;;;17.88;8.68;;;1.30;99.90;;;;;;5087458;28;20036;-70
2023/03/10 03:08:07;;;;;;;17.20;8.98;;;1.30;99.90;;;;;;5076586;28;20111;-70
2023/03/10 03:10:33;;;;;;;20.33;9.70;;;1.30;99.90;;;;;;5085869;28;20472;-70
2023/03/10 03:12:58;;;;;;;15.60;8.20;;;1.30;99.90;;;;;;5053503;28;20086;-70
2023/03/10 03:15:24;;;;;;;19.17;8.60;;;1.20;99.90;;;;;;5065788;28;20487;-70
2023/03/10 03:17:50;;;;;;;18.90;11.13;;;1.20;99.90;;;;;;5087966;28;20028;-70
2023/03/10 03:20:16;;;;;;;17.77;8.88;;;1.20;99.90;;;;;;5088407;28;20055;-70
2023/03/10 03:22:45;;;;;;;16.10;8.68;;;1.20;99.90;;;;;;5080343;28;20037;-70
2023/03/10 03:25:13;;;;;;;15.05;8.30;;;1.20;99.90;;;;;;5066614;28;20052;-70
2023/03/10 03:27:39;;;;;;;23.58;10.73;;;1.20;99.90;;;;;;5067071;28;20032;-70
2023/03/10 03:30:08;;;;;;;17.90;9.10;;;1.20;99.90;;;;;;5078356;28;20094;-70
2023/03/10 03:32:35;;;;;;;16.48;8.85;;;1.20;99.90;;;;;;5061542;28;20048;-69
2023/03/10 03:35:01;;;;;;;22.55;10.68;;;1.20;99.90;;;;;;5061341;28;20052;-69
2023/03/10 03:37:27;;;;;;;22.00;10.77;;;1.20;99.90;;;;;;5059104;28;20050;-69
2023/03/10 03:39:53;;;;;;;21.80;10.23;;;1.30;99.90;;;;;;5063474;28;20434;-70
2023/03/10 03:42:18;;;;;;;23.45;11.55;;;1.30;99.90;;;;;;5079612;28;20035;-70
2023/03/10 03:44:44;;;;;;;18.52;10.20;;;1.30;99.90;;;;;;5069501;28;20043;-69
2023/03/10 03:47:09;;;;;;;23.92;11.13;;;1.30;99.90;;;;;;5082886;28;20047;-70
2023/03/10 03:49:38;;;;;;;25.85;11.85;;;1.30;99.90;;;;;;5068492;28;20046;-70
2023/03/10 03:52:06;;;;;;;16.63;8.23;;;1.30;99.90;;;;;;5085121;28;20090;-70
2023/03/10 03:54:32;;;;;;;19.15;9.27;;;1.30;99.90;;;;;;5087200;28;20040;-70
2023/03/10 03:56:58;;;;;;;22.95;12.80;;;1.30;99.90;;;;;;5078295;28;20101;-69
2023/03/10 03:59:24;;;;;;;17.85;9.40;;;1.30;99.90;;;;;;5080151;28;20040;-70
2023/03/10 04:01:49;;;;;;;32.38;15.90;;;1.30;99.90;;;;;;5067810;28;20064;-70
2023/03/10 04:04:15;;;;;;;19.77;11.57;;;1.30;99.90;;;;;;5087069;28;20078;-70
2023/03/10 04:06:41;;;;;;;33.72;15.13;;;1.30;99.90;;;;;;5086344;28;20046;-72
2023/03/10 04:09:09;;;;;;;17.35;9.27;;;1.30;99.90;;;;;;5049522;28;20110;-72
2023/03/10 04:11:35;;;;;;;21.95;10.95;;;1.30;99.90;;;;;;5087807;28;20045;-69
2023/03/10 04:14:00;;;;;;;21.10;10.52;;;1.30;99.90;;;;;;5073625;28;20048;-70
2023/03/10 04:16:26;;;;;;;22.55;11.40;;;1.30;99.90;;;;;;5085607;28;20074;-69
2023/03/10 04:18:52;;;;;;;23.95;10.90;;;1.30;99.90;;;;;;5080664;28;20063;-70
2023/03/10 04:21:17;;;;;;;25.45;12.07;;;1.20;99.90;;;;;;5084164;28;20044;-70
2023/03/10 04:23:43;;;;;;;19.23;11.02;;;1.20;99.90;;;;;;5086433;28;20137;-70
2023/03/10 04:26:09;;;;;;;19.75;10.85;;;1.20;99.90;;;;;;5088032;28;20047;-70
2023/03/10 04:28:36;;;;;;;31.30;14.38;;;1.10;99.90;;;;;;5080400;28;20119;-69
2023/03/10 04:31:02;;;;;;;26.13;13.63;;;1.10;99.90;;;;;;5080013;28;20111;-70
2023/03/10 04:33:28;;;;;;;30.55;13.85;;;1.10;99.90;;;;;;5066140;28;20036;-69
2023/03/10 04:35:53;;;;;;;19.40;10.15;;;1.10;99.90;;;;;;5066049;28;20055;-70
2023/03/10 04:38:21;;;;;;;22.25;12.43;;;1.00;99.90;;;;;;5066202;28;20483;-69
2023/03/10 04:40:52;;;;;;;16.60;9.30;;;1.00;99.90;;;;;;5077712;28;20071;-69
2023/03/10 04:43:18;;;;;;;27.50;13.32;;;1.00;99.90;;;;;;5079890;28;20036;-69
2023/03/10 04:45:44;;;;;;;28.02;13.10;;;0.90;99.90;;;;;;5042796;28;20043;-69
2023/03/10 04:48:09;;;;;;;22.67;12.55;;;0.90;99.90;;;;;;5064631;28;20133;-68
2023/03/10 04:50:35;;;;;;;23.73;11.05;;;0.90;99.90;;;;;;5086063;28;20035;-68
2023/03/10 04:53:00;;;;;;;32.72;14.27;;;0.80;99.90;;;;;;5084479;28;20039;-68
2023/03/10 04:55:26;;;;;;;35.40;13.90;;;0.90;99.90;;;;;;5067930;28;20407;-68
2023/03/10 04:57:51;;;;;;;32.85;15.07;;;0.80;99.90;;;;;;5084123;28;20032;-68
2023/03/10 05:00:18;;;;;;;38.60;14.88;;;0.80;99.90;;;;;;5078566;28;20059;-68
2023/03/10 05:02:44;;;;;;;31.05;14.35;;;0.80;99.90;;;;;;5064887;28;20059;-68
2023/03/10 05:05:10;;;;;;;34.03;14.73;;;0.80;99.90;;;;;;5054657;28;20048;-69
2023/03/10 05:07:35;;;;;;;33.15;13.93;;;0.90;99.90;;;;;;5082660;28;20623;-68
2023/03/10 05:10:01;;;;;;;41.83;17.02;;;0.80;99.90;;;;;;5086249;28;20391;-68
2023/03/10 05:12:27;;;;;;;26.27;13.00;;;0.80;99.90;;;;;;5051996;28;20425;-69
2023/03/10 05:14:52;;;;;;;24.33;11.63;;;0.80;99.90;;;;;;5049642;28;20071;-68
2023/03/10 05:17:18;;;;;;;41.63;17.50;;;0.80;99.90;;;;;;5064278;28;20040;-68
2023/03/10 05:19:44;;;;;;;32.70;14.50;;;0.80;99.90;;;;;;5061486;28;20044;-68
2023/03/10 05:22:11;;;;;;;39.25;17.73;;;0.80;99.90;;;;;;5072455;28;20063;-68
2023/03/10 05:24:36;;;;;;;52.50;17.52;;;0.80;99.90;;;;;;5066715;28;20056;-69
2023/03/10 05:27:02;;;;;;;32.53;14.13;;;0.80;99.90;;;;;;5086461;28;20032;-68
2023/03/10 05:29:28;;;;;;;49.42;18.40;;;0.80;99.90;;;;;;5064321;28;20130;-69
2023/03/10 05:31:54;;;;;;;38.00;15.77;;;0.80;99.90;;;;;;5082720;28;20411;-68
2023/03/10 05:34:19;;;;;;;30.63;13.05;;;0.80;99.90;;;;;;5065553;28;20071;-69
2023/03/10 05:36:45;;;;;;;58.20;20.00;;;0.80;99.90;;;;;;5082771;28;20526;-68
2023/03/10 05:39:11;;;;;;;35.20;14.90;;;0.80;99.90;;;;;;5079010;28;20036;-69
2023/03/10 05:41:37;;;;;;;51.30;18.85;;;0.80;99.90;;;;;;5077210;28;20040;-69
2023/03/10 05:44:03;;;;;;;63.58;21.58;;;0.80;99.90;;;;;;5048331;28;20071;-69
2023/03/10 05:46:29;;;;;;;72.63;24.48;;;0.80;99.90;;;;;;5083086;28;20068;-69
2023/03/10 05:48:55;;;;;;;63.80;21.58;;;0.80;99.90;;;;;;5057802;28;20459;-69
2023/03/10 05:51:21;;;;;;;60.30;21.38;;;0.80;99.90;;;;;;5062335;28;20044;-69
2023/03/10 05:53:47;;;;;;;46.53;18.50;;;0.80;99.90;;;;;;5065453;28;20050;-69
2023/03/10 05:56:15;;;;;;;41.60;16.50;;;0.80;99.90;;;;;;5082245;28;20036;-69
2023/03/10 05:58:42;;;;;;;74.88;24.55;;;0.80;99.90;;;;;;5080696;28;20075;-68
2023/03/10 06:01:08;;;;;;;64.95;23.05;;;0.80;99.90;;;;;;5082687;28;20044;-68
2023/03/10 06:03:35;;;;;;;47.50;19.00;;;0.80;99.90;;;;;;5080154;28;20427;-68
2023/03/10 06:06:02;;;;;;;48.05;19.33;;;0.80;99.90;;;;;;5076376;28;20491;-68
2023/03/10 06:08:27;;;;;;;55.60;21.85;;;0.80;99.90;;;;;;5066744;28;20079;-68
2023/03/10 06:10:53;;;;;;;71.28;23.70;;;0.80;99.90;;;;;;5080669;28;20060;-68
2023/03/10 06:13:19;;;;;;;48.75;20.52;;;0.70;99.90;;;;;;5080733;28;20359;-68
2023/03/10 06:15:58;;;;;;;39.38;21.02;;;0.80;99.90;;;;;;5053569;28;20101;-68
2023/03/10 06:18:24;;;;;;;34.85;14.73;;;0.70;99.90;;;;;;5085111;28;20434;-68
2023/03/10 06:20:51;;;;;;;49.30;19.02;;;0.80;99.90;;;;;;5079105;28;20956;-68
2023/03/10 06:23:17;;;;;;;40.28;15.80;;;0.80;99.90;;;;;;5059412;28;20032;-68
2023/03/10 06:25:43;;;;;;;33.88;15.10;;;0.70;99.90;;;;;;5062584;28;20446;-68
2023/03/10 06:28:09;;;;;;;61.60;18.50;;;0.70;99.90;;;;;;5088676;28;20081;-68
2023/03/10 06:30:35;;;;;;;33.67;13.52;;;0.70;99.90;;;;;;5086878;28;20044;-68
2023/03/10 06:33:01;;;;;;;43.00;15.48;;;0.70;99.90;;;;;;5041689;28;20707;-68
2023/03/10 06:35:27;;;;;;;53.38;18.33;;;0.70;99.90;;;;;;5086928;28;20106;-68
2023/03/10 06:37:53;;;;;;;43.83;16.60;;;0.70;99.90;;;;;;5064088;28;20044;-68
2023/03/10 06:40:19;;;;;;;39.53;15.02;;;0.70;99.90;;;;;;5082760;28;20052;-68
2023/03/10 06:42:45;;;;;;;41.50;14.85;;;0.70;99.90;;;;;;5088507;28;20040;-68
2023/03/10 06:45:15;;;;;;;32.20;13.48;;;0.70;99.90;;;;;;5068273;28;20409;-68
2023/03/10 06:47:40;;;;;;;40.45;14.05;;;0.70;99.90;;;;;;5062646;28;20051;-68
2023/03/10 06:50:07;;;;;;;26.70;11.48;;;0.80;99.90;;;;;;5089105;28;20036;-67
2023/03/10 06:52:33;;;;;;;36.40;14.10;;;0.70;99.90;;;;;;5071924;28;20032;-68
2023/03/10 06:55:00;;;;;;;34.97;13.77;;;0.80;99.90;;;;;;5077514;28;20393;-68
2023/03/10 06:57:26;;;;;;;26.70;11.82;;;0.80;99.90;;;;;;5047549;28;20032;-68
2023/03/10 06:59:51;;;;;;;27.08;10.30;;;0.80;99.90;;;;;;5069347;28;20399;-68
2023/03/10 07:02:18;;;;;;;28.63;12.77;;;0.80;99.90;;;;;;5080229;28;20514;-68
2023/03/10 07:04:45;;;;;;;32.83;13.23;;;0.80;99.90;;;;;;5068665;28;20104;-69
2023/03/10 07:07:11;;;;;;;38.95;14.60;;;0.80;99.90;;;;;;5082301;28;20063;-68
2023/03/10 07:09:37;;;;;;;30.63;13.88;;;0.80;99.90;;;;;;5061716;28;20134;-68
2023/03/10 07:12:02;;;;;;;30.95;13.20;;;0.80;99.90;;;;;;5087402;28;20180;-68
2023/03/10 07:14:28;;;;;;;29.95;12.35;;;0.80;99.90;;;;;;5079908;28;20579;-68
2023/03/10 07:16:54;;;;;;;23.25;10.63;;;0.80;99.90;;;;;;5063736;28;20133;-68
2023/03/10 07:19:19;;;;;;;27.67;12.05;;;0.90;99.90;;;;;;5085903;28;20028;-69
2023/03/10 07:21:45;;;;;;;16.52;9.07;;;0.90;99.90;;;;;;5051867;28;20134;-69
2023/03/10 07:24:11;;;;;;;29.95;12.52;;;0.90;99.90;;;;;;5085899;28;20044;-69
2023/03/10 07:26:36;;;;;;;29.00;13.27;;;0.90;99.90;;;;;;5062297;28;20584;-69
2023/03/10 07:29:03;;;;;;;22.70;9.73;;;0.90;99.90;;;;;;5085136;28;20036;-69
2023/03/10 07:31:29;;;;;;;27.85;12.00;;;0.90;99.90;;;;;;5089065;28;20039;-69
2023/03/10 07:33:54;;;;;;;30.27;12.75;;;1.00;99.90;;;;;;5088794;28;20419;-70
2023/03/10 07:36:21;;;;;;;32.70;13.07;;;1.00;99.90;;;;;;5087796;28;20403;-69
2023/03/10 07:38:47;;;;;;;29.70;13.63;;;1.00;99.90;;;;;;5053400;28;20028;-68
2023/03/10 07:41:16;;;;;;;28.42;13.30;;;1.00;99.90;;;;;;5086512;28;20090;-68
2023/03/10 07:43:41;;;;;;;35.95;14.32;;;1.00;99.90;;;;;;5067365;28;20048;-68
2023/03/10 07:46:10;;;;;;;32.97;13.98;;;1.00;99.90;;;;;;5087076;28;20036;-68
2023/03/10 07:48:35;;;;;;;27.75;12.77;;;1.00;99.90;;;;;;5087578;28;20046;-68
2023/03/10 07:51:01;;;;;;;23.38;12.68;;;1.00;99.90;;;;;;5085762;28;20406;-68
2023/03/10 07:53:28;;;;;;;27.05;12.43;;;1.00;99.90;;;;;;5087690;28;20051;-68
2023/03/10 07:55:54;;;;;;;23.85;10.88;;;1.00;99.90;;;;;;5086074;28;21848;-68
2023/03/10 07:58:20;;;;;;;28.45;13.23;;;1.00;99.90;;;;;;5086881;28;20031;-68
2023/03/10 08:00:45;;;;;;;32.67;15.10;;;1.00;99.90;;;;;;5087648;28;20032;-68
2023/03/10 08:03:11;;;;;;;35.55;16.35;;;1.10;99.90;;;;;;5052273;28;20039;-68
2023/03/10 08:05:41;;;;;;;29.85;13.65;;;1.00;99.90;;;;;;5087138;28;20450;-69
2023/03/10 08:08:07;;;;;;;29.80;13.43;;;1.00;99.90;;;;;;5086501;28;20032;-69
2023/03/10 08:10:33;;;;;;;35.05;16.02;;;1.00;99.90;;;;;;5084198;28;20035;-69
2023/03/10 08:12:58;;;;;;;30.05;14.07;;;1.00;99.90;;;;;;5084934;28;20040;-69
2023/03/10 08:15:25;;;;;;;25.77;11.88;;;1.10;99.90;;;;;;5088423;28;20446;-69
2023/03/10 08:17:51;;;;;;;25.13;15.05;;;1.10;99.90;;;;;;5089115;28;20435;-70
2023/03/10 08:20:17;;;;;;;33.30;14.90;;;1.10;99.90;;;;;;5082956;28;20036;-70
2023/03/10 08:22:42;;;;;;;31.75;14.75;;;1.10;99.90;;;;;;5087774;28;20090;-70
2023/03/10 08:25:08;;;;;;;33.42;15.63;;;1.10;99.90;;;;;;5086602;28;20553;-71
2023/03/10 08:27:34;;;;;;;21.42;11.93;;;1.10;99.90;;;;;;5074548;28;20047;-71
2023/03/10 08:30:00;;;;;;;27.60;13.35;;;1.10;99.90;;;;;;5084199;28;20047;-71
2023/03/10 08:32:25;;;;;;;27.40;11.80;;;1.10;99.90;;;;;;5086783;28;20040;-71
2023/03/10 08:34:51;;;;;;;29.10;14.07;;;1.10;99.90;;;;;;5068828;28;20530;-71
2023/03/10 08:37:17;;;;;;;37.08;17.75;;;1.10;99.90;;;;;;5080003;28;20074;-71
2023/03/10 08:39:42;;;;;;;39.17;17.73;;;1.20;99.90;;;;;;5066485;28;20503;-71
2023/03/10 08:42:12;;;;;;;34.75;15.13;;;1.20;99.90;;;;;;5066988;28;20035;-70
2023/03/10 08:44:39;;;;;;;27.02;16.60;;;1.30;99.90;;;;;;5069957;28;20040;-71
2023/03/10 08:47:05;;;;;;;34.65;16.00;;;1.20;99.90;;;;;;5080634;28;20072;-72
2023/03/10 08:49:30;;;;;;;26.58;12.95;;;1.20;99.90;;;;;;5086252;28;20105;-71
2023/03/10 08:51:56;;;;;;;25.25;11.73;;;1.20;99.90;;;;;;5051360;28;20488;-71
2023/03/10 08:54:22;;;;;;;33.53;16.00;;;1.10;99.90;;;;;;5068031;28;20455;-70
2023/03/10 08:56:48;;;;;;;30.92;13.90;;;1.20;99.90;;;;;;5056869;28;20404;-71
2023/03/10 08:59:14;;;;;;;27.38;14.02;;;1.20;99.90;;;;;;5088201;28;20897;-70
2023/03/10 09:01:39;;;;;;;29.88;17.20;;;1.20;99.90;;;;;;5086436;28;20031;-71
2023/03/10 09:04:07;;;;;;;22.65;11.23;;;1.20;99.90;;;;;;5068478;28;20042;-71
2023/03/10 09:06:33;;;;;;;31.00;14.27;;;1.20;99.90;;;;;;5085829;28;20063;-71
2023/03/10 09:08:59;;;;;;;22.05;10.90;;;1.20;99.90;;;;;;5086305;28;20482;-71
2023/03/10 09:11:30;;;;;;;22.98;10.63;;;1.20;99.90;;;;;;5079617;28;20075;-71
2023/03/10 09:13:56;;;;;;;21.48;10.55;;;1.20;99.90;;;;;;5079753;28;20055;-71
2023/03/10 09:16:22;;;;;;;28.98;14.20;;;1.20;99.90;;;;;;5051859;28;20556;-70
2023/03/10 09:18:47;;;;;;;28.42;12.43;;;1.20;99.90;;;;;;5084202;28;20040;-71
2023/03/10 09:21:16;;;;;;;30.98;14.05;;;1.20;99.90;;;;;;5078640;28;20035;-72
2023/03/10 09:23:44;;;;;;;31.70;14.43;;;1.20;99.90;;;;;;5082651;28;20052;-70
2023/03/10 09:26:10;;;;;;;27.15;15.15;;;1.20;99.90;;;;;;5085226;28;20070;-70
2023/03/10 09:28:35;;;;;;;23.20;11.45;;;1.30;99.90;;;;;;5082945;28;20039;-70
2023/03/10 09:31:04;;;;;;;25.30;13.00;;;1.30;99.90;;;;;;5060258;28;20123;-70
2023/03/10 09:33:31;;;;;;;28.90;13.18;;;1.30;99.90;;;;;;5085659;28;20035;-70
2023/03/10 09:35:57;;;;;;;26.38;15.65;;;1.40;99.90;;;;;;5077205;28;21022;-70
2023/03/10 09:38:23;;;;;;;25.38;13.32;;;1.40;99.90;;;;;;5078438;28;20044;-70
2023/03/10 09:40:59;;;;;;;33.15;14.93;;;1.40;99.90;;;;;;5065745;28;20059;-71
2023/03/10 09:43:26;;;;;;;23.90;12.18;;;1.40;99.90;;;;;;5086020;28;20068;-70
2023/03/10 09:46:03;;;;;;;22.92;13.52;;;1.40;99.90;;;;;;5077508;28;20028;-70
2023/03/10 09:49:03;;;;;;;23.67;13.43;;;1.40;99.90;;;;;;5077408;28;20097;-70
2023/03/10 09:51:28;;;;;;;21.65;11.30;;;1.40;99.90;;;;;;5070169;28;20048;-70
2023/03/10 09:54:23;;;;;;;25.15;11.93;;;1.30;99.90;;;;;;5059635;28;20037;-72
2023/03/10 09:56:49;;;;;;;;;;;1.40;99.90;;;;;;5042913;28;20081;-70
2023/03/10 09:59:26;;;;;;;28.70;11.57;;;1.30;99.90;;;;;;5066797;28;20307;-70
2023/03/10 10:01:52;;;;;;;24.88;12.95;;;1.30;99.90;;;;;;5086036;28;20044;-70
2023/03/10 10:04:26;;;;;;;24.52;12.52;;;1.40;99.90;;;;;;5065409;28;20500;-70
2023/03/10 10:06:55;;;;;;;24.75;11.40;;;1.40;99.90;;;;;;5080946;28;20044;-70
2023/03/10 10:09:41;;;;;;;22.95;10.55;;;1.40;99.90;;;;;;5066273;28;20040;-70
2023/03/10 10:12:25;;;;;;;32.63;15.30;;;1.40;99.90;;;;;;5067518;28;20064;-70
2023/03/10 10:14:55;;;;;;;;;;;1.40;99.90;;;;;;5078206;28;20116;-70
2023/03/10 10:17:49;;;;;;;24.77;10.95;;;1.40;99.90;;;;;;5066614;28;20371;-70
2023/03/10 10:20:38;;;;;;;24.25;11.18;;;1.40;99.90;;;;;;5083546;28;20040;-70
2023/03/10 10:23:33;;;;;;;25.67;12.75;;;1.40;99.90;;;;;;5060276;28;20101;-70
2023/03/10 10:26:09;;;;;;;22.48;13.32;;;1.40;99.90;;;;;;5073845;28;20058;-70
2023/03/10 10:28:40;;;;;;;29.80;15.25;;;1.40;99.90;;;;;;5063876;28;20051;-70
2023/03/10 10:31:15;;;;;;;29.80;14.85;;;1.40;99.90;;;;;;5081606;28;20135;-70
2023/03/10 10:33:52;;;;;;;27.65;18.45;;;1.40;99.90;;;;;;5061629;28;20040;-70
2023/03/10 10:36:18;;;;;;;22.88;13.30;;;1.30;99.90;;;;;;5080748;28;20404;-70
2023/03/10 10:38:52;;;;;;;21.45;12.27;;;1.30;99.90;;;;;;5078237;28;20077;-69
2023/03/10 10:41:31;;;;;;;23.20;12.00;;;1.40;99.90;;;;;;5043781;28;20040;-70
2023/03/10 10:44:06;;;;;;;24.63;12.98;;;1.40;99.90;;;;;;5085585;28;20371;-70
2023/03/10 10:46:32;;;;;;;27.00;12.02;;;1.40;99.90;;;;;;5057040;28;20583;-70
2023/03/10 10:49:07;;;;;;;28.15;12.13;;;1.40;99.90;;;;;;5078226;28;20440;-69
2023/03/10 10:51:36;;;;;;;25.80;11.23;;;1.40;99.90;;;;;;5050120;28;20064;-69
2023/03/10 10:54:18;;;;;;;27.27;14.27;;;1.40;99.90;;;;;;5066130;28;20032;-69
2023/03/10 10:56:54;;;;;;;25.85;12.30;;;1.40;99.90;;;;;;5083483;28;20045;-70
2023/03/10 10:59:34;;;;;;;26.38;13.30;;;1.40;99.90;;;;;;5078537;28;20043;-69
2023/03/10 11:02:22;;;;;;;27.02;15.85;;;1.40;99.90;;;;;;5088772;28;20040;-69
2023/03/10 11:04:47;;;;;;;27.08;12.05;;;1.40;99.90;;;;;;5077694;28;20038;-69
2023/03/10 11:07:22;;;;;;;19.33;9.05;;;1.40;99.90;;;;;;5081679;28;20046;-69
2023/03/10 11:09:48;;;;;;;31.38;14.32;;;1.40;99.90;;;;;;5088644;28;20039;-69
2023/03/10 11:12:22;;;;;;;26.70;12.77;;;1.40;99.90;;;;;;5088276;28;20545;-69
2023/03/10 11:15:13;;;;;;;26.67;11.80;;;1.40;99.90;;;;;;5085951;28;20042;-70
2023/03/10 11:18:24;;;;;;;24.05;11.45;;;1.40;99.90;;;;;;5068602;28;20472;-70
2023/03/10 11:21:11;;;;;;;26.85;12.38;;;1.40;99.90;;;;;;5021820;28;20581;-70
2023/03/10 11:24:15;;;;;;;23.92;11.20;;;1.40;99.90;;;;;;5016909;28;20053;-69
2023/03/10 11:26:52;;;;;;;24.90;12.02;;;1.40;99.90;;;;;;5007818;28;20735;-69
2023/03/10 11:29:28;;;;;;;23.35;12.55;;;1.40;99.90;;;;;;5010407;28;20106;-70
2023/03/10 11:32:18;;;;;;;23.45;13.90;;;1.40;99.90;;;;;;5025295;28;20080;-70
2023/03/10 11:34:50;;;;;;;23.80;12.40;;;1.40;99.90;;;;;;5008788;28;20063;-69
2023/03/10 11:37:44;;;;;;;21.95;12.32;;;1.40;99.90;;;;;;5024748;28;20053;-70
2023/03/10 11:40:18;;;;;;;27.65;12.05;;;1.40;99.90;;;;;;5015401;28;20173;-70
2023/03/10 11:42:55;;;;;;;22.77;12.02;;;1.40;99.90;;;;;;5009007;28;20673;-71
2023/03/10 11:45:41;;;;;;;24.70;10.48;;;1.40;99.90;;;;;;5008253;28;20037;-71
2023/03/10 11:48:33;;;;;;;33.45;15.63;;;1.40;99.90;;;;;;5005775;28;20397;-71
2023/03/10 11:51:02;;;;;;;23.00;13.25;;;1.40;99.90;;;;;;5019633;28;20120;-71
2023/03/10 11:53:44;;;;;;;22.70;10.93;;;1.50;99.90;;;;;;5006862;28;20568;-71
2023/03/10 11:56:13;;;;;;;22.45;10.10;;;1.40;99.90;;;;;;5031713;28;20155;-71
2023/03/10 11:58:53;;;;;;;22.67;10.27;;;1.40;99.90;;;;;;5042424;28;20059;-71
2023/03/10 12:01:25;;;;;;;21.38;11.52;;;1.40;99.90;;;;;;5061131;28;20554;-71
2023/03/10 12:04:21;;;;;;;23.80;11.27;;;1.40;99.90;;;;;;5025091;28;20396;-70
2023/03/10 12:07:08;;;;;;;24.10;12.93;;;1.40;99.90;;;;;;5059417;28;20076;-70
2023/03/10 12:09:41;;;;;;;23.35;11.60;;;1.40;99.90;;;;;;5045344;28;20049;-70
2023/03/10 12:12:13;;;;;;;22.00;10.35;;;1.40;99.90;;;;;;5040503;28;20067;-71
2023/03/10 12:14:40;;;;;;;20.05;10.52;;;1.50;99.90;;;;;;5059814;28;20408;-71
2023/03/10 12:17:10;;;;;;;24.25;13.43;;;1.50;99.90;;;;;;5046250;28;20076;-70
2023/03/10 12:20:09;;;;;;;31.50;14.95;;;1.50;99.90;;;;;;5061034;28;20048;-70
2023/03/10 12:22:49;;;;;;;33.33;15.65;;;1.50;99.90;;;;;;5059487;28;20052;-70
2023/03/10 12:25:27;;;;;;;35.05;15.82;;;1.60;99.90;;;;;;5020599;28;20048;-70
2023/03/10 12:28:15;;;;;;;26.27;13.25;;;1.60;99.90;;;;;;5057441;28;20480;-70
2023/03/10 12:30:56;;;;;;;24.65;12.07;;;1.60;99.90;;;;;;5060532;28;20040;-70
2023/03/10 12:33:38;;;;;;;26.95;13.00;;;1.60;99.90;;;;;;5041547;28;20078;-70
2023/03/10 12:36:14;;;;;;;22.25;13.10;;;1.60;99.90;;;;;;5055143;28;20515;-70
2023/03/10 12:38:53;;;;;;;22.83;11.82;;;1.60;99.90;;;;;;5052197;28;20567;-70
2023/03/10 12:41:24;;;;;;;35.03;16.48;;;1.60;99.90;;;;;;5057189;28;20041;-71
2023/03/10 12:43:57;;;;;;;28.23;15.63;;;1.60;99.90;;;;;;5058526;28;20058;-70
2023/03/10 12:46:45;;;;;;;37.33;16.77;;;1.60;99.90;;;;;;5058492;28;20043;-71
2023/03/10 12:49:45;;;;;;;24.92;14.45;;;1.60;99.90;;;;;;5029105;28;20131;-70
2023/03/10 12:52:46;;;;;;;23.75;13.85;;;1.60;99.90;;;;;;5037259;28;20041;-71
2023/03/10 12:55:23;;;;;;;30.77;16.55;;;1.60;99.90;;;;;;5046367;28;20098;-70